sensor_id;sensor_type;location;lat;lon;timestamp;temperature;humidity
18779;DHT22;9518;51.720;14.384;2024-01-11T00:00:26;-11.60;99.90
18779;DHT22;9518;51.720;14.384;2024-01-11T00:02:53;-11.60;99.90
18779;DHT22;9518;51.720;14.384;2024-01-11T00:05:21;-11.50;99.90
18779;DHT22;9518;51.720;14.384;2024-01-11T00:07:48;-11.50;99.90
18779;DHT22;9518;51.720;14.384;2024-01-11T00:10:16;-11.50;99.90
18779;DHT22;9518;51.720;14.384;2024-01-11T00:12:44;-11.50;99.90
18779;DHT22;9518;51.720;14.384;2024-01-11T00:15:11;-11.50;99.90
18779;DHT22;9518;51.720;14.384;2024-01-11T00:17:38;-11.60;99.90
18779;DHT22;9518;51.720;14.384;2024-01-11T00:20:06;-11.60;99.90
18779;DHT22;9518;51.720;14.384;2024-01-11T00:22:36;-11.60;99.90
18779;DHT22;9518;51.720;14.384;2024-01-11T00:25:03;-11.60;99.90
18779;DHT22;9518;51.720;14.384;2024-01-11T00:27:30;-11.50;99.90
18779;DHT22;9518;51.720;14.384;2024-01-11T00:30:00;-11.60;99.90
18779;DHT22;9518;51.720;14.384;2024-01-11T00:32:27;-11.60;99.90
18779;DHT22;9518;51.720;14.384;2024-01-11T00:34:54;-11.60;99.90
18779;DHT22;9518;51.720;14.384;2024-01-11T00:37:21;-11.60;99.90
18779;DHT22;9518;51.720;14.384;2024-01-11T00:39:49;-11.70;99.90
18779;DHT22;9518;51.720;14.384;2024-01-11T00:42:16;-11.70;99.90
18779;DHT22;9518;51.720;14.384;2024-01-11T00:44:43;-11.70;99.90
18779;DHT22;9518;51.720;14.384;2024-01-11T00:47:10;-11.60;99.90
18779;DHT22;9518;51.720;14.384;2024-01-11T00:49:37;-11.60;99.90
18779;DHT22;9518;51.720;14.384;2024-01-11T00:52:05;-11.60;99.90
18779;DHT22;9518;51.720;14.384;2024-01-11T00:54:32;-11.60;99.90
18779;DHT22;9518;51.720;14.384;2024-01-11T00:57:00;-11.70;99.90
18779;DHT22;9518;51.720;14.384;2024-01-11T00:59:27;-11.70;99.90
18779;DHT22;9518;51.720;14.384;2024-01-11T01:01:55;-11.70;99.90
18779;DHT22;9518;51.720;14.384;2024-01-11T01:04:22;-11.70;99.90
18779;DHT22;9518;51.720;14.384;2024-01-11T01:06:49;-11.70;99.90
18779;DHT22;9518;51.720;14.384;2024-01-11T01:09:16;-11.80;99.90
18779;DHT22;9518;51.720;14.384;2024-01-11T01:11:43;-11.80;99.90
18779;DHT22;9518;51.720;14.384;2024-01-11T01:14:12;-11.70;99.90
18779;DHT22;9518;51.720;14.384;2024-01-11T01:16:39;-11.70;99.90
18779;DHT22;9518;51.720;14.384;2024-01-11T01:19:06;-11.70;99.90
18779;DHT22;9518;51.720;14.384;2024-01-11T01:21:31;-11.70;99.90
18779;DHT22;9518;51.720;14.384;2024-01-11T01:23:58;-11.60;99.90
18779;DHT22;9518;51.720;14.384;2024-01-11T01:26:26;-11.50;99.90
18779;DHT22;9518;51.720;14.384;2024-01-11T01:28:53;-11.50;99.90
18779;DHT22;9518;51.720;14.384;2024-01-11T01:31:21;-11.50;99.90
18779;DHT22;9518;51.720;14.384;2024-01-11T01:33:48;-11.50;99.90
18779;DHT22;9518;51.720;14.384;2024-01-11T01:36:15;-11.60;99.90
18779;DHT22;9518;51.720;14.384;2024-01-11T01:38:42;-11.60;99.90
18779;DHT22;9518;51.720;14.384;2024-01-11T01:41:09;-11.60;99.90
18779;DHT22;9518;51.720;14.384;2024-01-11T01:43:36;-11.60;99.90
18779;DHT22;9518;51.720;14.384;2024-01-11T01:46:05;-11.60;99.90
18779;DHT22;9518;51.720;14.384;2024-01-11T01:48:33;-11.60;99.90
18779;DHT22;9518;51.720;14.384;2024-01-11T01:51:01;-11.60;99.90
18779;DHT22;9518;51.720;14.384;2024-01-11T01:53:29;-11.70;99.90
18779;DHT22;9518;51.720;14.384;2024-01-11T01:55:56;-11.70;99.90
18779;DHT22;9518;51.720;14.384;2024-01-11T01:58:24;-11.70;99.90
18779;DHT22;9518;51.720;14.384;2024-01-11T02:00:51;-11.70;99.90
18779;DHT22;9518;51.720;14.384;2024-01-11T02:03:18;-11.80;99.90
18779;DHT22;9518;51.720;14.384;2024-01-11T02:05:47;-11.70;99.90
18779;DHT22;9518;51.720;14.384;2024-01-11T02:08:16;-11.60;99.90
18779;DHT22;9518;51.720;14.384;2024-01-11T02:10:43;-11.60;99.90
18779;DHT22;9518;51.720;14.384;2024-01-11T02:13:12;-11.60;99.90
18779;DHT22;9518;51.720;14.384;2024-01-11T02:15:39;-11.60;99.90
18779;DHT22;9518;51.720;14.384;2024-01-11T02:18:06;-11.50;99.90
18779;DHT22;9518;51.720;14.384;2024-01-11T02:20:33;-11.50;99.90
18779;DHT22;9518;51.720;14.384;2024-01-11T02:23:06;-11.50;99.90
18779;DHT22;9518;51.720;14.384;2024-01-11T02:25:36;-11.50;99.90
18779;DHT22;9518;51.720;14.384;2024-01-11T02:28:03;-11.50;99.90
18779;DHT22;9518;51.720;14.384;2024-01-11T02:30:30;-11.60;99.90
18779;DHT22;9518;51.720;14.384;2024-01-11T02:32:57;-11.50;99.90
18779;DHT22;9518;51.720;14.384;2024-01-11T02:35:28;-11.50;99.90
18779;DHT22;9518;51.720;14.384;2024-01-11T02:37:55;-11.50;99.90
18779;DHT22;9518;51.720;14.384;2024-01-11T02:40:22;-11.60;99.90
18779;DHT22;9518;51.720;14.384;2024-01-11T02:42:51;-11.60;99.90
18779;DHT22;9518;51.720;14.384;2024-01-11T02:45:18;-11.60;99.90
18779;DHT22;9518;51.720;14.384;2024-01-11T02:47:45;-11.50;99.90
18779;DHT22;9518;51.720;14.384;2024-01-11T02:50:12;-11.50;99.90
18779;DHT22;9518;51.720;14.384;2024-01-11T02:52:39;-11.40;99.90
18779;DHT22;9518;51.720;14.384;2024-01-11T02:55:07;-11.30;99.90
18779;DHT22;9518;51.720;14.384;2024-01-11T02:57:34;-11.30;99.90
18779;DHT22;9518;51.720;14.384;2024-01-11T03:00:03;-11.20;99.90
18779;DHT22;9518;51.720;14.384;2024-01-11T03:02:31;-11.30;99.90
18779;DHT22;9518;51.720;14.384;2024-01-11T03:04:58;-11.40;99.90
18779;DHT22;9518;51.720;14.384;2024-01-11T03:07:25;-11.30;99.90
18779;DHT22;9518;51.720;14.384;2024-01-11T03:09:55;-11.20;99.90
18779;DHT22;9518;51.720;14.384;2024-01-11T03:12:22;-11.30;99.90
18779;DHT22;9518;51.720;14.384;2024-01-11T03:14:51;-11.40;99.90
18779;DHT22;9518;51.720;14.384;2024-01-11T03:17:20;-11.40;99.90
18779;DHT22;9518;51.720;14.384;2024-01-11T03:19:50;-11.40;99.90
18779;DHT22;9518;51.720;14.384;2024-01-11T03:22:17;-11.20;99.90
18779;DHT22;9518;51.720;14.384;2024-01-11T03:24:44;-11.20;99.90
18779;DHT22;9518;51.720;14.384;2024-01-11T03:27:10;-11.20;99.90
18779;DHT22;9518;51.720;14.384;2024-01-11T03:29:37;-11.20;99.90
18779;DHT22;9518;51.720;14.384;2024-01-11T03:32:05;-11.20;99.90
18779;DHT22;9518;51.720;14.384;2024-01-11T03:34:33;-11.20;99.90
18779;DHT22;9518;51.720;14.384;2024-01-11T03:37:00;-11.30;99.90
18779;DHT22;9518;51.720;14.384;2024-01-11T03:39:27;-11.40;99.90
18779;DHT22;9518;51.720;14.384;2024-01-11T03:41:54;-11.40;99.90
18779;DHT22;9518;51.720;14.384;2024-01-11T03:44:22;-11.40;99.90
18779;DHT22;9518;51.720;14.384;2024-01-11T03:46:52;-11.40;99.90
18779;DHT22;9518;51.720;14.384;2024-01-11T03:49:22;-11.40;99.90
18779;DHT22;9518;51.720;14.384;2024-01-11T03:51:50;-11.20;99.90
18779;DHT22;9518;51.720;14.384;2024-01-11T03:54:17;-11.20;99.90
18779;DHT22;9518;51.720;14.384;2024-01-11T03:56:44;-11.20;99.90
18779;DHT22;9518;51.720;14.384;2024-01-11T03:59:11;-11.20;99.90
18779;DHT22;9518;51.720;14.384;2024-01-11T04:01:40;-11.20;99.90
18779;DHT22;9518;51.720;14.384;2024-01-11T04:04:07;-11.20;99.90
18779;DHT22;9518;51.720;14.384;2024-01-11T04:06:34;-11.20;99.90
18779;DHT22;9518;51.720;14.384;2024-01-11T04:09:02;-11.20;99.90
18779;DHT22;9518;51.720;14.384;2024-01-11T04:11:30;-11.20;99.90
18779;DHT22;9518;51.720;14.384;2024-01-11T04:13:57;-11.20;99.90
18779;DHT22;9518;51.720;14.384;2024-01-11T04:16:24;-11.20;99.90
18779;DHT22;9518;51.720;14.384;2024-01-11T04:18:51;-11.10;99.90
18779;DHT22;9518;51.720;14.384;2024-01-11T04:21:22;-11.20;99.90
18779;DHT22;9518;51.720;14.384;2024-01-11T04:23:49;-11.20;99.90
18779;DHT22;9518;51.720;14.384;2024-01-11T04:26:17;-11.20;99.90
18779;DHT22;9518;51.720;14.384;2024-01-11T04:28:45;-11.30;99.90
18779;DHT22;9518;51.720;14.384;2024-01-11T04:31:14;-11.30;99.90
18779;DHT22;9518;51.720;14.384;2024-01-11T04:33:43;-11.10;99.90
18779;DHT22;9518;51.720;14.384;2024-01-11T04:36:09;-11.10;99.90
18779;DHT22;9518;51.720;14.384;2024-01-11T04:38:36;-11.00;99.90
18779;DHT22;9518;51.720;14.384;2024-01-11T04:41:09;-11.10;99.90
18779;DHT22;9518;51.720;14.384;2024-01-11T04:43:39;-11.10;99.90
18779;DHT22;9518;51.720;14.384;2024-01-11T04:46:13;-11.10;99.90
18779;DHT22;9518;51.720;14.384;2024-01-11T04:48:42;-11.10;99.90
18779;DHT22;9518;51.720;14.384;2024-01-11T04:51:09;-11.10;99.90
18779;DHT22;9518;51.720;14.384;2024-01-11T04:53:37;-11.00;99.90
18779;DHT22;9518;51.720;14.384;2024-01-11T04:56:06;-11.00;99.90
18779;DHT22;9518;51.720;14.384;2024-01-11T04:58:34;-11.00;99.90
18779;DHT22;9518;51.720;14.384;2024-01-11T05:01:04;-11.00;99.90
18779;DHT22;9518;51.720;14.384;2024-01-11T05:03:32;-11.00;99.90
18779;DHT22;9518;51.720;14.384;2024-01-11T05:05:59;-11.00;99.90
18779;DHT22;9518;51.720;14.384;2024-01-11T05:08:27;-11.00;99.90
18779;DHT22;9518;51.720;14.384;2024-01-11T05:10:54;-11.00;99.90
18779;DHT22;9518;51.720;14.384;2024-01-11T05:13:21;-11.00;99.90
18779;DHT22;9518;51.720;14.384;2024-01-11T05:15:48;-10.90;99.90
18779;DHT22;9518;51.720;14.384;2024-01-11T05:18:17;-10.90;99.90
18779;DHT22;9518;51.720;14.384;2024-01-11T05:20:44;-10.80;99.90
18779;DHT22;9518;51.720;14.384;2024-01-11T05:23:11;-10.60;99.90
18779;DHT22;9518;51.720;14.384;2024-01-11T05:25:38;-10.40;99.90
18779;DHT22;9518;51.720;14.384;2024-01-11T05:28:05;-10.30;99.90
18779;DHT22;9518;51.720;14.384;2024-01-11T05:30:33;-10.20;99.90
18779;DHT22;9518;51.720;14.384;2024-01-11T05:33:00;-10.10;99.90
18779;DHT22;9518;51.720;14.384;2024-01-11T05:35:28;-9.90;99.90
18779;DHT22;9518;51.720;14.384;2024-01-11T05:37:55;-9.70;99.90
18779;DHT22;9518;51.720;14.384;2024-01-11T05:40:22;-9.60;99.90
18779;DHT22;9518;51.720;14.384;2024-01-11T05:42:49;-9.40;99.90
18779;DHT22;9518;51.720;14.384;2024-01-11T05:45:16;-9.30;99.90
18779;DHT22;9518;51.720;14.384;2024-01-11T05:47:43;-9.30;99.90
18779;DHT22;9518;51.720;14.384;2024-01-11T05:50:10;-9.20;99.90
18779;DHT22;9518;51.720;14.384;2024-01-11T05:52:39;-9.30;99.90
18779;DHT22;9518;51.720;14.384;2024-01-11T05:55:07;-9.20;99.90
18779;DHT22;9518;51.720;14.384;2024-01-11T05:57:34;-9.20;99.90
18779;DHT22;9518;51.720;14.384;2024-01-11T06:00:01;-9.10;99.90
18779;DHT22;9518;51.720;14.384;2024-01-11T06:02:28;-9.20;99.90
18779;DHT22;9518;51.720;14.384;2024-01-11T06:04:57;-9.10;99.90
18779;DHT22;9518;51.720;14.384;2024-01-11T06:07:24;-9.20;99.90
18779;DHT22;9518;51.720;14.384;2024-01-11T06:09:53;-9.20;99.90
18779;DHT22;9518;51.720;14.384;2024-01-11T06:12:20;-9.20;99.90
18779;DHT22;9518;51.720;14.384;2024-01-11T06:14:47;-9.30;99.90
18779;DHT22;9518;51.720;14.384;2024-01-11T06:17:14;-9.30;99.90
18779;DHT22;9518;51.720;14.384;2024-01-11T06:19:40;-9.20;99.90
18779;DHT22;9518;51.720;14.384;2024-01-11T06:22:10;-9.10;99.90
18779;DHT22;9518;51.720;14.384;2024-01-11T06:24:37;-9.00;99.90
18779;DHT22;9518;51.720;14.384;2024-01-11T06:27:06;-8.90;99.90
18779;DHT22;9518;51.720;14.384;2024-01-11T06:29:34;-8.90;99.90
18779;DHT22;9518;51.720;14.384;2024-01-11T06:32:01;-8.80;99.90
18779;DHT22;9518;51.720;14.384;2024-01-11T06:34:29;-8.80;99.90
18779;DHT22;9518;51.720;14.384;2024-01-11T06:36:56;-8.70;99.90
18779;DHT22;9518;51.720;14.384;2024-01-11T06:39:23;-8.60;99.90
18779;DHT22;9518;51.720;14.384;2024-01-11T06:41:50;-8.70;99.90
18779;DHT22;9518;51.720;14.384;2024-01-11T06:44:18;-8.80;99.90
18779;DHT22;9518;51.720;14.384;2024-01-11T06:46:45;-8.80;99.90
18779;DHT22;9518;51.720;14.384;2024-01-11T06:49:12;-8.70;99.90
18779;DHT22;9518;51.720;14.384;2024-01-11T06:51:39;-8.80;99.90
18779;DHT22;9518;51.720;14.384;2024-01-11T06:54:08;-8.80;99.90
18779;DHT22;9518;51.720;14.384;2024-01-11T06:56:35;-8.80;99.90
18779;DHT22;9518;51.720;14.384;2024-01-11T06:59:02;-8.90;99.90
18779;DHT22;9518;51.720;14.384;2024-01-11T07:01:31;-8.90;99.90
18779;DHT22;9518;51.720;14.384;2024-01-11T07:03:57;-8.90;99.90
18779;DHT22;9518;51.720;14.384;2024-01-11T07:06:25;-8.90;99.90
18779;DHT22;9518;51.720;14.384;2024-01-11T07:08:51;-8.90;99.90
18779;DHT22;9518;51.720;14.384;2024-01-11T07:11:19;-8.90;99.90
18779;DHT22;9518;51.720;14.384;2024-01-11T07:13:45;-8.90;99.90
18779;DHT22;9518;51.720;14.384;2024-01-11T07:16:15;-8.90;99.90
18779;DHT22;9518;51.720;14.384;2024-01-11T07:18:43;-8.80;99.90
18779;DHT22;9518;51.720;14.384;2024-01-11T07:21:10;-8.60;99.90
18779;DHT22;9518;51.720;14.384;2024-01-11T07:23:37;-8.70;99.90
18779;DHT22;9518;51.720;14.384;2024-01-11T07:26:04;-8.70;99.90
18779;DHT22;9518;51.720;14.384;2024-01-11T07:28:31;-8.50;99.90
18779;DHT22;9518;51.720;14.384;2024-01-11T07:30:58;-8.50;99.90
18779;DHT22;9518;51.720;14.384;2024-01-11T07:33:25;-8.50;99.90
18779;DHT22;9518;51.720;14.384;2024-01-11T07:35:53;-8.40;99.90
18779;DHT22;9518;51.720;14.384;2024-01-11T07:38:21;-8.30;99.90
18779;DHT22;9518;51.720;14.384;2024-01-11T07:40:48;-8.30;99.90
18779;DHT22;9518;51.720;14.384;2024-01-11T07:43:15;-8.30;99.90
18779;DHT22;9518;51.720;14.384;2024-01-11T07:45:42;-8.20;99.90
18779;DHT22;9518;51.720;14.384;2024-01-11T07:48:09;-8.10;99.90
18779;DHT22;9518;51.720;14.384;2024-01-11T07:50:36;-8.20;99.90
18779;DHT22;9518;51.720;14.384;2024-01-11T07:53:05;-8.20;99.90
18779;DHT22;9518;51.720;14.384;2024-01-11T07:55:32;-8.10;99.90
18779;DHT22;9518;51.720;14.384;2024-01-11T07:58:00;-8.10;99.90
18779;DHT22;9518;51.720;14.384;2024-01-11T08:00:27;-8.00;99.90
18779;DHT22;9518;51.720;14.384;2024-01-11T08:02:54;-7.90;99.90
18779;DHT22;9518;51.720;14.384;2024-01-11T08:05:21;-7.70;99.90
18779;DHT22;9518;51.720;14.384;2024-01-11T08:07:48;-7.70;99.90
18779;DHT22;9518;51.720;14.384;2024-01-11T08:10:17;-7.60;99.90
18779;DHT22;9518;51.720;14.384;2024-01-11T08:12:44;-7.50;99.90
18779;DHT22;9518;51.720;14.384;2024-01-11T08:15:11;-7.40;99.90
18779;DHT22;9518;51.720;14.384;2024-01-11T08:17:39;-7.40;99.90
18779;DHT22;9518;51.720;14.384;2024-01-11T08:20:06;-7.30;99.90
18779;DHT22;9518;51.720;14.384;2024-01-11T08:22:34;-7.30;99.90
18779;DHT22;9518;51.720;14.384;2024-01-11T08:25:03;-7.30;99.90
18779;DHT22;9518;51.720;14.384;2024-01-11T08:27:32;-7.20;99.90
18779;DHT22;9518;51.720;14.384;2024-01-11T08:29:59;-7.20;99.90
18779;DHT22;9518;51.720;14.384;2024-01-11T08:32:27;-7.10;99.90
18779;DHT22;9518;51.720;14.384;2024-01-11T08:34:56;-7.00;99.90
18779;DHT22;9518;51.720;14.384;2024-01-11T08:37:23;-6.90;99.90
18779;DHT22;9518;51.720;14.384;2024-01-11T08:39:50;-6.90;99.90
18779;DHT22;9518;51.720;14.384;2024-01-11T08:42:20;-6.80;99.90
18779;DHT22;9518;51.720;14.384;2024-01-11T08:44:48;-6.80;99.90
18779;DHT22;9518;51.720;14.384;2024-01-11T08:47:15;-6.70;99.90
18779;DHT22;9518;51.720;14.384;2024-01-11T08:49:42;-6.60;99.90
18779;DHT22;9518;51.720;14.384;2024-01-11T08:52:09;-6.60;99.90
18779;DHT22;9518;51.720;14.384;2024-01-11T08:54:39;-6.50;99.90
18779;DHT22;9518;51.720;14.384;2024-01-11T08:57:06;-6.30;99.90
18779;DHT22;9518;51.720;14.384;2024-01-11T08:59:33;-6.30;99.90
18779;DHT22;9518;51.720;14.384;2024-01-11T09:02:01;-6.30;99.90
18779;DHT22;9518;51.720;14.384;2024-01-11T09:04:28;-6.20;99.90
18779;DHT22;9518;51.720;14.384;2024-01-11T09:06:55;-6.20;99.90
18779;DHT22;9518;51.720;14.384;2024-01-11T09:09:22;-6.20;99.90
18779;DHT22;9518;51.720;14.384;2024-01-11T09:11:49;-6.20;99.90
18779;DHT22;9518;51.720;14.384;2024-01-11T09:14:17;-6.20;99.90
18779;DHT22;9518;51.720;14.384;2024-01-11T09:16:44;-6.10;99.90
18779;DHT22;9518;51.720;14.384;2024-01-11T09:19:13;-6.20;99.90
18779;DHT22;9518;51.720;14.384;2024-01-11T09:21:40;-6.20;99.90
18779;DHT22;9518;51.720;14.384;2024-01-11T09:24:07;-6.10;99.90
18779;DHT22;9518;51.720;14.384;2024-01-11T09:26:34;-6.10;99.90
18779;DHT22;9518;51.720;14.384;2024-01-11T09:29:02;-6.10;99.90
18779;DHT22;9518;51.720;14.384;2024-01-11T09:31:29;-6.00;99.90
18779;DHT22;9518;51.720;14.384;2024-01-11T09:33:56;-6.00;99.90
18779;DHT22;9518;51.720;14.384;2024-01-11T09:36:25;-5.90;99.90
18779;DHT22;9518;51.720;14.384;2024-01-11T09:38:52;-5.90;99.90
18779;DHT22;9518;51.720;14.384;2024-01-11T09:41:19;-5.80;99.90
18779;DHT22;9518;51.720;14.384;2024-01-11T09:43:49;-5.80;99.90
18779;DHT22;9518;51.720;14.384;2024-01-11T09:46:20;-5.70;99.90
18779;DHT22;9518;51.720;14.384;2024-01-11T09:48:48;-5.60;99.90
18779;DHT22;9518;51.720;14.384;2024-01-11T09:51:16;-5.40;99.90
18779;DHT22;9518;51.720;14.384;2024-01-11T09:53:44;-5.30;99.90
18779;DHT22;9518;51.720;14.384;2024-01-11T09:56:11;-5.10;99.90
18779;DHT22;9518;51.720;14.384;2024-01-11T09:58:40;-5.00;99.90
18779;DHT22;9518;51.720;14.384;2024-01-11T10:01:11;-5.00;99.90
18779;DHT22;9518;51.720;14.384;2024-01-11T10:03:39;-4.90;99.90
18779;DHT22;9518;51.720;14.384;2024-01-11T10:06:07;-4.80;99.90
18779;DHT22;9518;51.720;14.384;2024-01-11T10:08:35;-4.80;99.90
18779;DHT22;9518;51.720;14.384;2024-01-11T10:11:04;-4.70;99.90
18779;DHT22;9518;51.720;14.384;2024-01-11T10:13:31;-4.70;99.90
18779;DHT22;9518;51.720;14.384;2024-01-11T10:16:08;-4.50;99.90
18779;DHT22;9518;51.720;14.384;2024-01-11T10:18:35;-4.40;99.90
18779;DHT22;9518;51.720;14.384;2024-01-11T10:21:03;-4.30;99.90
18779;DHT22;9518;51.720;14.384;2024-01-11T10:23:33;-4.10;99.90
18779;DHT22;9518;51.720;14.384;2024-01-11T10:26:01;-4.10;99.90
18779;DHT22;9518;51.720;14.384;2024-01-11T10:28:29;-4.20;99.90
18779;DHT22;9518;51.720;14.384;2024-01-11T10:30:56;-4.10;99.90
18779;DHT22;9518;51.720;14.384;2024-01-11T10:33:24;-4.00;99.90
18779;DHT22;9518;51.720;14.384;2024-01-11T10:35:51;-4.10;99.90
18779;DHT22;9518;51.720;14.384;2024-01-11T10:38:18;-4.00;99.90
18779;DHT22;9518;51.720;14.384;2024-01-11T10:40:45;-4.10;99.90
18779;DHT22;9518;51.720;14.384;2024-01-11T10:43:14;-4.00;99.90
18779;DHT22;9518;51.720;14.384;2024-01-11T10:45:48;-4.00;99.90
18779;DHT22;9518;51.720;14.384;2024-01-11T10:48:21;-4.10;99.90
18779;DHT22;9518;51.720;14.384;2024-01-11T10:50:53;-4.00;99.90
18779;DHT22;9518;51.720;14.384;2024-01-11T10:53:25;-3.90;99.90
18779;DHT22;9518;51.720;14.384;2024-01-11T10:55:55;-3.90;99.90
18779;DHT22;9518;51.720;14.384;2024-01-11T10:58:24;-3.80;99.90
18779;DHT22;9518;51.720;14.384;2024-01-11T11:00:54;-3.70;99.90
18779;DHT22;9518;51.720;14.384;2024-01-11T11:03:23;-3.60;99.90
18779;DHT22;9518;51.720;14.384;2024-01-11T11:05:53;-3.40;99.90
18779;DHT22;9518;51.720;14.384;2024-01-11T11:08:22;-3.40;99.90
18779;DHT22;9518;51.720;14.384;2024-01-11T11:10:55;-3.30;99.90
18779;DHT22;9518;51.720;14.384;2024-01-11T11:13:22;-3.30;99.90
18779;DHT22;9518;51.720;14.384;2024-01-11T11:15:50;-3.30;99.90
18779;DHT22;9518;51.720;14.384;2024-01-11T11:18:19;-3.30;99.90
18779;DHT22;9518;51.720;14.384;2024-01-11T11:20:47;-3.20;99.90
18779;DHT22;9518;51.720;14.384;2024-01-11T11:23:17;-3.20;99.90
18779;DHT22;9518;51.720;14.384;2024-01-11T11:25:46;-3.20;99.90
18779;DHT22;9518;51.720;14.384;2024-01-11T11:28:14;-3.10;99.90
18779;DHT22;9518;51.720;14.384;2024-01-11T11:30:42;-3.00;99.90
18779;DHT22;9518;51.720;14.384;2024-01-11T11:33:10;-2.90;99.50
18779;DHT22;9518;51.720;14.384;2024-01-11T11:35:38;-2.90;99.90
18779;DHT22;9518;51.720;14.384;2024-01-11T11:38:07;-2.90;98.60
18779;DHT22;9518;51.720;14.384;2024-01-11T11:40:37;-2.90;98.50
18779;DHT22;9518;51.720;14.384;2024-01-11T11:43:06;-3.00;98.90
18779;DHT22;9518;51.720;14.384;2024-01-11T11:45:33;-3.10;99.60
18779;DHT22;9518;51.720;14.384;2024-01-11T11:48:00;-3.00;99.20
18779;DHT22;9518;51.720;14.384;2024-01-11T11:50:27;-3.00;99.90
18779;DHT22;9518;51.720;14.384;2024-01-11T11:52:57;-3.00;99.50
18779;DHT22;9518;51.720;14.384;2024-01-11T11:55:25;-3.00;99.80
18779;DHT22;9518;51.720;14.384;2024-01-11T11:57:52;-2.90;99.90
18779;DHT22;9518;51.720;14.384;2024-01-11T12:00:20;-2.90;99.70
18779;DHT22;9518;51.720;14.384;2024-01-11T12:02:50;-2.80;99.90
18779;DHT22;9518;51.720;14.384;2024-01-11T12:05:17;-2.80;99.90
18779;DHT22;9518;51.720;14.384;2024-01-11T12:07:45;-2.90;99.70
18779;DHT22;9518;51.720;14.384;2024-01-11T12:10:14;-2.80;99.50
18779;DHT22;9518;51.720;14.384;2024-01-11T12:12:41;-2.70;99.20
18779;DHT22;9518;51.720;14.384;2024-01-11T12:15:09;-2.60;98.80
18779;DHT22;9518;51.720;14.384;2024-01-11T12:17:40;-2.70;99.00
18779;DHT22;9518;51.720;14.384;2024-01-11T12:20:08;-2.70;99.90
18779;DHT22;9518;51.720;14.384;2024-01-11T12:22:36;-2.90;99.90
18779;DHT22;9518;51.720;14.384;2024-01-11T12:25:04;-3.00;99.90
18779;DHT22;9518;51.720;14.384;2024-01-11T12:27:33;-3.10;99.90
18779;DHT22;9518;51.720;14.384;2024-01-11T12:30:01;-3.20;99.90
18779;DHT22;9518;51.720;14.384;2024-01-11T12:32:28;-3.30;99.90
18779;DHT22;9518;51.720;14.384;2024-01-11T12:34:56;-3.20;99.90
18779;DHT22;9518;51.720;14.384;2024-01-11T12:37:23;-3.00;99.90
18779;DHT22;9518;51.720;14.384;2024-01-11T12:39:57;-2.90;99.90
18779;DHT22;9518;51.720;14.384;2024-01-11T12:42:27;-2.70;99.90
18779;DHT22;9518;51.720;14.384;2024-01-11T12:44:55;-2.60;99.90
18779;DHT22;9518;51.720;14.384;2024-01-11T12:47:23;-2.50;99.90
18779;DHT22;9518;51.720;14.384;2024-01-11T12:49:50;-2.50;99.90
18779;DHT22;9518;51.720;14.384;2024-01-11T12:52:18;-2.40;99.90
18779;DHT22;9518;51.720;14.384;2024-01-11T12:54:46;-2.50;99.90
18779;DHT22;9518;51.720;14.384;2024-01-11T12:57:17;-2.30;99.90
18779;DHT22;9518;51.720;14.384;2024-01-11T12:59:45;-2.30;99.90
18779;DHT22;9518;51.720;14.384;2024-01-11T13:02:13;-2.20;99.90
18779;DHT22;9518;51.720;14.384;2024-01-11T13:04:42;-2.30;99.90
18779;DHT22;9518;51.720;14.384;2024-01-11T13:07:10;-2.30;99.90
18779;DHT22;9518;51.720;14.384;2024-01-11T13:09:38;-2.30;99.90
18779;DHT22;9518;51.720;14.384;2024-01-11T13:12:05;-2.50;99.90
18779;DHT22;9518;51.720;14.384;2024-01-11T13:14:33;-2.50;99.90
18779;DHT22;9518;51.720;14.384;2024-01-11T13:17:00;-2.50;99.90
18779;DHT22;9518;51.720;14.384;2024-01-11T13:19:28;-2.50;99.90
18779;DHT22;9518;51.720;14.384;2024-01-11T13:21:55;-2.60;99.90
18779;DHT22;9518;51.720;14.384;2024-01-11T13:27:30;-2.70;99.90
18779;DHT22;9518;51.720;14.384;2024-01-11T13:29:57;-2.70;99.90
18779;DHT22;9518;51.720;14.384;2024-01-11T13:32:24;-2.70;99.90
18779;DHT22;9518;51.720;14.384;2024-01-11T13:34:53;-2.80;99.90
18779;DHT22;9518;51.720;14.384;2024-01-11T13:37:20;-2.70;99.90
18779;DHT22;9518;51.720;14.384;2024-01-11T13:39:47;-2.90;99.90
18779;DHT22;9518;51.720;14.384;2024-01-11T13:42:15;-2.90;99.90
18779;DHT22;9518;51.720;14.384;2024-01-11T13:44:42;-2.90;99.90
18779;DHT22;9518;51.720;14.384;2024-01-11T13:47:09;-3.00;99.90
18779;DHT22;9518;51.720;14.384;2024-01-11T13:49:36;-3.00;99.90
18779;DHT22;9518;51.720;14.384;2024-01-11T13:52:05;-3.00;99.90
18779;DHT22;9518;51.720;14.384;2024-01-11T13:54:32;-3.00;99.90
18779;DHT22;9518;51.720;14.384;2024-01-11T13:56:59;-3.10;99.90
18779;DHT22;9518;51.720;14.384;2024-01-11T13:59:28;-3.10;99.90
18779;DHT22;9518;51.720;14.384;2024-01-11T14:01:55;-3.00;99.90
18779;DHT22;9518;51.720;14.384;2024-01-11T14:04:22;-3.10;99.90
18779;DHT22;9518;51.720;14.384;2024-01-11T14:06:51;-3.10;99.90
18779;DHT22;9518;51.720;14.384;2024-01-11T14:09:20;-3.10;99.90
18779;DHT22;9518;51.720;14.384;2024-01-11T14:11:48;-3.10;99.90
18779;DHT22;9518;51.720;14.384;2024-01-11T14:14:15;-3.20;99.90
18779;DHT22;9518;51.720;14.384;2024-01-11T14:16:44;-3.10;99.90
18779;DHT22;9518;51.720;14.384;2024-01-11T14:19:11;-3.10;99.90
18779;DHT22;9518;51.720;14.384;2024-01-11T14:21:39;-3.10;99.90
18779;DHT22;9518;51.720;14.384;2024-01-11T14:24:06;-3.10;99.90
18779;DHT22;9518;51.720;14.384;2024-01-11T14:26:34;-3.20;99.90
18779;DHT22;9518;51.720;14.384;2024-01-11T14:29:02;-3.20;99.90
18779;DHT22;9518;51.720;14.384;2024-01-11T14:31:29;-3.10;99.90
18779;DHT22;9518;51.720;14.384;2024-01-11T14:33:56;-3.10;99.90
18779;DHT22;9518;51.720;14.384;2024-01-11T14:36:23;-3.00;99.90
18779;DHT22;9518;51.720;14.384;2024-01-11T14:38:50;-3.00;99.90
18779;DHT22;9518;51.720;14.384;2024-01-11T14:41:16;-3.10;99.90
18779;DHT22;9518;51.720;14.384;2024-01-11T14:43:45;-3.00;99.90
18779;DHT22;9518;51.720;14.384;2024-01-11T14:46:14;-3.00;99.90
18779;DHT22;9518;51.720;14.384;2024-01-11T14:48:42;-3.00;99.90
18779;DHT22;9518;51.720;14.384;2024-01-11T14:51:10;-3.10;99.90
18779;DHT22;9518;51.720;14.384;2024-01-11T14:53:37;-3.00;99.90
18779;DHT22;9518;51.720;14.384;2024-01-11T14:56:04;-3.00;99.90
18779;DHT22;9518;51.720;14.384;2024-01-11T14:58:31;-3.10;99.90
18779;DHT22;9518;51.720;14.384;2024-01-11T15:01:00;-3.00;99.90
18779;DHT22;9518;51.720;14.384;2024-01-11T15:03:27;-3.10;99.90
18779;DHT22;9518;51.720;14.384;2024-01-11T15:05:54;-3.10;99.90
18779;DHT22;9518;51.720;14.384;2024-01-11T15:08:21;-3.10;99.90
18779;DHT22;9518;51.720;14.384;2024-01-11T15:10:49;-3.10;99.90
18779;DHT22;9518;51.720;14.384;2024-01-11T15:13:16;-3.10;99.90
18779;DHT22;9518;51.720;14.384;2024-01-11T15:15:43;-3.10;99.90
18779;DHT22;9518;51.720;14.384;2024-01-11T15:18:11;-3.10;99.90
18779;DHT22;9518;51.720;14.384;2024-01-11T15:20:38;-3.20;99.90
18779;DHT22;9518;51.720;14.384;2024-01-11T15:23:05;-3.20;99.90
18779;DHT22;9518;51.720;14.384;2024-01-11T15:25:32;-3.20;99.90
18779;DHT22;9518;51.720;14.384;2024-01-11T15:27:59;-3.20;99.90
18779;DHT22;9518;51.720;14.384;2024-01-11T15:30:26;-3.20;99.90